Time;durP1;ratioP1;P1;durP2;ratioP2;P2;SDS_P1;SDS_P2;PMS_P1;PMS_P2;Temp;Humidity;BMP_temperature;BMP_pressure;BME280_temperature;BME280_humidity;BME280_pressure;Samples;Min_cycle;Max_cycle;Signal;HPM_P1;HPM_P2
2022/09/15 00:00:18;;;;;;;2.97;1.00;;;;;;;14.55;100.00;92302.13;2126004;27;20101;-67
2022/09/15 00:01:19;;;;;;;2.70;1.10;;;;;;;14.64;100.00;92314.75;2135699;27;20023;-69
2022/09/15 00:02:20;;;;;;;2.08;0.85;;;;;;;14.60;100.00;92298.06;2135460;27;20046;-67
2022/09/15 00:03:22;;;;;;;2.25;0.80;;;;;;;14.59;100.00;92301.94;2135364;27;20029;-67
2022/09/15 00:04:23;;;;;;;2.10;0.88;;;;;;;14.62;100.00;92301.03;2135055;27;20091;-69
2022/09/15 00:05:24;;;;;;;2.33;1.20;;;;;;;14.77;100.00;92311.81;2135413;27;20100;-67
2022/09/15 00:06:25;;;;;;;2.35;0.90;;;;;;;14.73;100.00;92303.19;2135210;27;20029;-67
2022/09/15 00:07:26;;;;;;;2.35;0.95;;;;;;;14.63;100.00;92309.84;2135588;27;20113;-69
2022/09/15 00:08:27;;;;;;;2.80;0.85;;;;;;;14.64;100.00;92295.94;2135534;27;20470;-68
2022/09/15 00:09:28;;;;;;;3.17;1.10;;;;;;;14.58;100.00;92292.41;2134666;27;20132;-67
2022/09/15 00:10:30;;;;;;;2.95;1.00;;;;;;;14.65;100.00;92300.09;2125929;27;20023;-69
2022/09/15 00:11:33;;;;;;;2.17;0.90;;;;;;;14.79;100.00;92288.63;2126444;27;20046;-65
2022/09/15 00:12:34;;;;;;;1.80;0.80;;;;;;;14.98;100.00;92309.97;2135271;27;20447;-68
2022/09/15 00:13:37;;;;;;;2.10;1.00;;;;;;;14.89;100.00;92291.25;2135368;27;20026;-67
2022/09/15 00:14:38;;;;;;;2.13;1.10;;;;;;;14.93;100.00;92289.84;2134405;27;20160;-66
2022/09/15 00:15:39;;;;;;;3.85;1.10;;;;;;;14.81;100.00;92288.16;2134951;27;20034;-67
2022/09/15 00:16:40;;;;;;;4.30;1.00;;;;;;;14.88;100.00;92287.78;2135411;27;20019;-67
2022/09/15 00:17:46;;;;;;;3.42;0.93;;;;;;;14.73;100.00;92290.47;2135317;27;20049;-67
2022/09/15 00:18:47;;;;;;;3.50;1.02;;;;;;;14.79;100.00;92294.00;2135455;27;20034;-66
2022/09/15 00:19:48;;;;;;;1.85;0.65;;;;;;;15.21;100.00;92286.88;2134612;27;20045;-68
2022/09/15 00:20:49;;;;;;;2.55;0.85;;;;;;;15.18;100.00;92283.16;2125633;27;20031;-68
2022/09/15 00:21:50;;;;;;;3.03;1.10;;;;;;;15.18;100.00;92291.22;2126311;27;20101;-67
2022/09/15 00:22:51;;;;;;;0.65;0.60;;;;;;;15.10;100.00;92280.09;2136808;27;20022;-67
2022/09/15 00:23:52;;;;;;;1.63;1.15;;;;;;;14.81;100.00;92280.84;2137936;27;20050;-67
2022/09/15 00:24:53;;;;;;;4.78;0.90;;;;;;;14.86;100.00;92282.88;2132602;27;20030;-67
2022/09/15 00:25:54;;;;;;;1.80;0.98;;;;;;;14.89;100.00;92289.28;2135463;27;20349;-69
2022/09/15 00:26:56;;;;;;;1.38;0.75;;;;;;;15.02;100.00;92279.00;2135175;27;20045;-70
2022/09/15 00:27:57;;;;;;;4.78;1.17;;;;;;;14.93;100.00;92289.84;2135460;27;20033;-69
2022/09/15 00:28:59;;;;;;;3.97;1.00;;;;;;;14.91;100.00;92284.16;2135392;27;20030;-68
2022/09/15 00:30:01;;;;;;;3.20;0.82;;;;;;;14.98;100.00;92286.50;2125807;27;20035;-67
2022/09/15 00:31:06;;;;;;;1.15;0.70;;;;;;;14.89;100.00;92291.25;2113533;27;20110;-67
2022/09/15 00:32:07;;;;;;;1.63;1.00;;;;;;;14.84;100.00;92287.97;2130174;27;20035;-67
2022/09/15 00:33:08;;;;;;;3.25;1.00;;;;;;;14.74;100.00;92293.91;2135167;27;20041;-67
2022/09/15 00:34:11;;;;;;;1.50;0.70;;;;;;;14.91;100.00;92300.31;2135048;27;20033;-67
2022/09/15 00:35:12;;;;;;;2.42;0.88;;;;;;;14.93;100.00;92292.53;2135274;27;20094;-67
2022/09/15 00:36:14;;;;;;;3.22;1.23;;;;;;;15.00;100.00;92294.09;2134345;27;20030;-67
2022/09/15 00:37:16;;;;;;;2.47;1.10;;;;;;;14.89;100.00;92302.00;2134978;27;20034;-66
2022/09/15 00:38:17;;;;;;;1.42;0.75;;;;;;;14.77;100.00;92291.03;2135253;27;20022;-67
2022/09/15 00:39:19;;;;;;;1.15;0.95;;;;;;;14.69;100.00;92289.91;2135120;27;20034;-69
2022/09/15 00:40:20;;;;;;;1.83;0.80;;;;;;;14.69;100.00;92289.91;2135088;27;20053;-67
2022/09/15 00:41:23;;;;;;;2.10;0.90;;;;;;;14.74;100.00;92291.19;2135313;27;20014;-67
2022/09/15 00:42:24;;;;;;;2.95;1.00;;;;;;;15.00;100.00;92297.53;2134744;27;20027;-68
2022/09/15 00:43:48;;;;;;;1.45;0.98;;;;;;;14.98;100.00;92294.56;2126091;27;20413;-68
2022/09/15 00:44:55;;;;;;;2.22;0.93;;;;;;;14.95;100.00;92298.19;2127209;27;20030;-67
2022/09/15 00:45:56;;;;;;;1.00;0.80;;;;;;;14.83;100.00;92291.13;2135304;27;20038;-70
2022/09/15 00:46:57;;;;;;;3.10;0.90;;;;;;;15.00;100.00;92299.47;2132563;27;20035;-68
2022/09/15 00:47:58;;;;;;;2.55;0.90;;;;;;;14.95;100.00;92292.06;2135133;27;20055;-67
2022/09/15 00:49:11;;;;;;;2.30;1.02;;;;;;;14.76;100.00;92289.53;2137309;27;20034;-68
2022/09/15 00:50:17;;;;;;;1.88;0.80;;;;;;;14.66;100.00;92290.06;2135221;27;20088;-67
2022/09/15 00:51:23;;;;;;;2.88;0.93;;;;;;;14.64;100.00;92303.25;2125698;27;20039;-66
2022/09/15 00:52:36;;;;;;;1.95;0.80;;;;;;;14.61;100.00;92297.56;2126117;27;20035;-67
2022/09/15 00:53:38;;;;;;;1.75;0.93;;;;;;;14.67;100.00;92296.97;2134150;27;20034;-67
2022/09/15 00:55:05;;;;;;;3.42;0.70;;;;;;;14.67;100.00;92300.38;2134773;27;20033;-67
2022/09/15 00:56:09;;;;;;;2.13;0.75;;;;;;;14.69;100.00;92308.00;2126750;27;20091;-67
2022/09/15 00:57:15;;;;;;;1.75;0.75;;;;;;;14.91;100.00;92308.38;2134268;27;20049;-66
2022/09/15 00:58:26;;;;;;;1.85;0.90;;;;;;;14.80;100.00;92300.88;2134837;27;20018;-69
2022/09/15 00:59:30;;;;;;;1.65;0.93;;;;;;;14.95;100.00;92300.88;2135193;27;20030;-67
2022/09/15 01:00:32;;;;;;;1.98;0.77;;;;;;;14.82;100.00;92303.09;2135000;27;20034;-67
2022/09/15 01:01:34;;;;;;;3.58;0.80;;;;;;;14.78;100.00;92297.88;2135157;27;20038;-67
2022/09/15 01:02:37;;;;;;;1.65;0.80;;;;;;;14.82;100.00;92303.09;2134698;27;20809;-68
2022/09/15 01:03:38;;;;;;;4.63;0.90;;;;;;;14.58;100.00;92297.78;2125751;27;20123;-67
2022/09/15 01:04:39;;;;;;;3.78;1.20;;;;;;;14.66;100.00;92296.19;2125786;27;20114;-68
2022/09/15 01:05:49;;;;;;;0.90;0.80;;;;;;;14.54;100.00;92295.25;2135182;27;20038;-67
2022/09/15 01:06:57;;;;;;;3.35;0.77;;;;;;;14.54;100.00;92289.16;2134965;27;20640;-69
2022/09/15 01:08:03;;;;;;;1.65;0.80;;;;;;;14.47;100.00;92294.84;2133779;27;20062;-67
2022/09/15 01:09:26;;;;;;;3.90;0.90;;;;;;;14.54;100.00;92299.91;2134794;27;20084;-68
2022/09/15 01:10:31;;;;;;;2.22;0.90;;;;;;;14.51;100.00;92298.13;2134900;27;20443;-68
2022/09/15 01:11:32;;;;;;;3.08;0.90;;;;;;;14.45;100.00;92298.00;2135078;27;20018;-67
2022/09/15 01:12:33;;;;;;;4.30;0.90;;;;;;;14.49;100.00;92293.22;2134893;27;20538;-68
2022/09/15 01:13:34;;;;;;;1.08;0.90;;;;;;;14.40;100.00;92293.25;2134591;27;20051;-66
2022/09/15 01:14:35;;;;;;;2.08;0.95;;;;;;;14.36;100.00;92279.25;2133111;27;20109;-68
2022/09/15 01:15:55;;;;;;;1.70;0.73;;;;;;;14.45;100.00;92281.13;2134564;27;20050;-67
2022/09/15 01:17:34;;;;;;;1.05;0.80;;;;;;;14.33;100.00;92275.53;2135184;27;20115;-66
2022/09/15 01:18:48;;;;;;;0.95;0.90;;;;;;;14.19;100.00;92275.50;2129859;27;20037;-66
2022/09/15 01:20:24;;;;;;;1.92;0.95;;;;;;;14.16;100.00;92277.13;2134789;27;20057;-67
2022/09/15 01:21:47;;;;;;;3.15;1.00;;;;;;;14.13;100.00;92272.69;2095552;28;20066;-66
2022/09/15 01:23:26;;;;;;;5.00;0.90;;;;;;;14.09;100.00;92266.72;2133524;27;20045;-66
2022/09/15 01:24:42;;;;;;;3.05;0.98;;;;;;;14.29;100.00;92266.16;2129566;27;20038;-66
2022/09/15 01:25:54;;;;;;;3.97;0.80;;;;;;;14.39;100.00;92258.75;2134834;27;20058;-66
2022/09/15 01:26:57;;;;;;;3.33;0.80;;;;;;;14.35;100.00;92261.63;2134991;27;20026;-67
2022/09/15 01:28:29;;;;;;;2.70;1.17;;;;;;;14.30;100.00;92262.25;2134758;27;20030;-66
2022/09/15 01:29:45;;;;;;;3.40;1.02;;;;;;;14.18;100.00;92265.91;2134686;27;20037;-68
2022/09/15 01:31:05;;;;;;;1.30;0.82;;;;;;;14.06;100.00;92264.97;2134945;27;20038;-67
2022/09/15 01:33:56;;;;;;;2.97;0.70;;;;;;;13.97;100.00;92265.78;2137876;27;20042;-67
2022/09/15 01:35:30;;;;;;;3.50;0.93;;;;;;;13.96;100.00;92263.53;2134127;27;20038;-69
2022/09/15 01:36:45;;;;;;;2.40;0.82;;;;;;;14.00;100.00;92267.53;2113237;27;20035;-69
2022/09/15 01:37:55;;;;;;;4.68;1.00;;;;;;;13.97;100.00;92265.78;2127520;27;20031;-67
2022/09/15 01:39:07;;;;;;;2.03;0.95;;;;;;;13.94;100.00;92260.56;2134845;27;20040;-67
2022/09/15 01:40:11;;;;;;;4.05;1.02;;;;;;;13.88;100.00;92263.16;2134275;27;20045;-67
2022/09/15 01:41:30;;;;;;;1.55;1.00;;;;;;;14.11;100.00;92267.78;2134506;27;20035;-67
2022/09/15 01:42:33;;;;;;;1.90;0.90;;;;;;;14.08;100.00;92268.69;2134789;27;20025;-68
2022/09/15 01:43:46;;;;;;;2.85;0.88;;;;;;;14.14;100.00;92271.50;2134665;27;20030;-67
2022/09/15 01:44:53;;;;;;;2.45;1.00;;;;;;;14.08;100.00;92259.88;2134064;27;20026;-67
2022/09/15 01:45:56;;;;;;;1.65;0.70;;;;;;;13.98;100.00;92253.81;2134811;27;20038;-68
2022/09/15 01:47:02;;;;;;;1.10;0.80;;;;;;;13.97;100.00;92260.41;2134677;27;20030;-67
2022/09/15 01:48:06;;;;;;;2.75;0.90;;;;;;;13.99;100.00;92257.25;2135400;27;20026;-66
2022/09/15 01:49:10;;;;;;;3.10;1.00;;;;;;;13.95;100.00;92257.41;2136744;27;20368;-68
2022/09/15 01:50:17;;;;;;;1.60;0.80;;;;;;;13.96;100.00;92250.09;2124514;27;20411;-67
2022/09/15 01:51:20;;;;;;;0.95;0.70;;;;;;;14.02;100.00;92261.72;2126752;27;20099;-68
2022/09/15 01:52:23;;;;;;;2.03;0.85;;;;;;;14.00;100.00;92258.72;2134720;27;20029;-66
2022/09/15 01:53:24;;;;;;;3.53;0.73;;;;;;;14.15;100.00;92256.09;2134681;27;20030;-67
2022/09/15 01:54:29;;;;;;;4.20;0.90;;;;;;;14.09;100.00;92266.72;2134447;27;20105;-68
2022/09/15 01:55:46;;;;;;;2.60;0.75;;;;;;;14.08;100.00;92265.97;2133759;27;20026;-66
2022/09/15 01:56:47;;;;;;;2.75;0.90;;;;;;;14.03;100.00;92268.56;2134651;27;20030;-68
2022/09/15 01:57:49;;;;;;;1.10;0.80;;;;;;;14.08;100.00;92270.63;2134429;27;20821;-67
2022/09/15 01:58:50;;;;;;;2.17;0.77;;;;;;;14.04;100.00;92273.47;2133966;27;20109;-67
2022/09/15 01:59:54;;;;;;;2.70;0.88;;;;;;;14.05;100.00;92266.91;2125308;27;20260;-67
2022/09/15 02:01:02;;;;;;;1.58;0.70;;;;;;;13.99;100.00;92270.69;2119752;27;20155;-66
2022/09/15 02:02:14;;;;;;;2.30;0.80;;;;;;;13.97;100.00;92265.78;2123717;27;20102;-67
2022/09/15 02:03:34;;;;;;;1.83;0.80;;;;;;;14.03;100.00;92261.25;2134602;27;20486;-65
2022/09/15 02:04:48;;;;;;;1.98;0.80;;;;;;;14.03;100.00;92268.56;2134381;27;20097;-65
2022/09/15 02:05:57;;;;;;;1.60;0.80;;;;;;;14.03;100.00;92260.50;2133493;27;20038;-65
2022/09/15 02:07:10;;;;;;;0.95;0.70;;;;;;;14.02;100.00;92265.16;2134658;27;20042;-66
2022/09/15 02:08:24;;;;;;;3.53;0.90;;;;;;;14.08;100.00;92263.31;2134492;27;20051;-66
2022/09/15 02:09:33;;;;;;;1.30;0.70;;;;;;;14.05;100.00;92266.91;2134718;27;20065;-66
2022/09/15 02:10:40;;;;;;;2.65;0.70;;;;;;;14.08;100.00;92259.88;2134283;27;20030;-68
2022/09/15 02:12:01;;;;;;;3.25;0.75;;;;;;;14.07;100.00;92258.41;2133518;27;20058;-68
2022/09/15 02:13:10;;;;;;;3.08;1.20;;;;;;;14.43;100.00;92262.00;2134542;27;20026;-65
2022/09/15 02:14:19;;;;;;;4.25;0.73;;;;;;;14.43;100.00;92259.31;2134365;27;20187;-66
2022/09/15 02:15:36;;;;;;;3.42;0.80;;;;;;;14.37;100.00;92251.16;2134092;27;20076;-66
2022/09/15 02:16:39;;;;;;;2.65;0.90;;;;;;;14.44;100.00;92250.78;2133709;27;20026;-66
2022/09/15 02:17:44;;;;;;;0.93;0.65;;;;;;;14.48;100.00;92247.91;2134269;27;20057;-66
2022/09/15 02:19:10;;;;;;;0.75;0.57;;;;;;;14.59;100.00;92248.16;2134489;27;20102;-66
2022/09/15 02:20:15;;;;;;;0.98;0.70;;;;;;;14.36;100.00;92247.00;2134226;27;20087;-67
2022/09/15 02:21:26;;;;;;;1.80;0.80;;;;;;;14.24;100.00;92250.66;2134330;27;20033;-66
2022/09/15 02:22:36;;;;;;;2.33;0.88;;;;;;;14.17;100.00;92251.00;2124425;27;20027;-67
2022/09/15 02:23:42;;;;;;;1.92;0.60;;;;;;;14.11;100.00;92248.97;2126551;27;20098;-67
2022/09/15 02:24:58;;;;;;;2.80;0.82;;;;;;;14.08;100.00;92244.50;2134428;27;20035;-65
2022/09/15 02:26:08;;;;;;;2.22;0.65;;;;;;;14.23;100.00;92246.50;2134392;27;20101;-66
2022/09/15 02:27:14;;;;;;;1.98;0.80;;;;;;;14.32;100.00;92252.53;2133842;27;20026;-66
2022/09/15 02:28:19;;;;;;;3.03;0.60;;;;;;;14.45;100.00;92244.22;2134600;27;20376;-69
2022/09/15 02:29:23;;;;;;;3.22;1.00;;;;;;;14.29;100.00;92244.66;2134353;27;20080;-67
2022/09/15 02:30:26;;;;;;;1.75;0.57;;;;;;;14.29;100.00;92250.03;2134493;27;20027;-66
2022/09/15 02:31:29;;;;;;;5.57;0.90;;;;;;;14.25;100.00;92246.75;2134284;27;20049;-67
2022/09/15 02:32:33;;;;;;;3.85;0.82;;;;;;;14.18;100.00;92241.72;2133562;27;20022;-66
2022/09/15 02:33:39;;;;;;;3.55;0.70;;;;;;;14.15;100.00;92240.72;2134388;27;20105;-66
2022/09/15 02:34:45;;;;;;;0.80;0.65;;;;;;;14.26;100.00;92246.28;2134152;27;20041;-66
2022/09/15 02:35:46;;;;;;;2.58;0.90;;;;;;;14.23;100.00;92235.75;2134512;27;20037;-69
2022/09/15 02:36:49;;;;;;;1.38;0.80;;;;;;;14.29;100.00;92247.34;2134429;27;20033;-66
2022/09/15 02:37:51;;;;;;;1.25;0.73;;;;;;;14.29;100.00;92247.34;2133515;27;20015;-67
2022/09/15 02:38:58;;;;;;;1.25;0.70;;;;;;;14.42;100.00;92260.53;2134527;27;20054;-65
2022/09/15 02:40:00;;;;;;;0.90;0.73;;;;;;;14.49;100.00;92257.53;2134366;27;20513;-66
2022/09/15 02:41:01;;;;;;;2.40;0.90;;;;;;;14.63;100.00;92250.66;2134263;27;20029;-66
2022/09/15 02:42:02;;;;;;;1.67;1.13;;;;;;;14.63;100.00;92258.75;2134291;27;20041;-68
2022/09/15 02:43:09;;;;;;;1.90;0.88;;;;;;;14.50;100.00;92240.91;2124269;27;20031;-65
2022/09/15 02:44:10;;;;;;;1.10;0.60;;;;;;;14.42;100.00;92250.50;2125851;27;20034;-66
2022/09/15 02:45:11;;;;;;;3.05;0.85;;;;;;;14.48;100.00;92250.59;2134350;27;20072;-66
2022/09/15 02:46:18;;;;;;;2.95;0.60;;;;;;;14.52;100.00;92254.63;2134242;27;20736;-67
2022/09/15 02:47:19;;;;;;;2.25;0.73;;;;;;;14.59;100.00;92242.78;2137550;27;20030;-66
2022/09/15 02:48:20;;;;;;;2.00;0.80;;;;;;;14.59;100.00;92250.84;2133859;27;20491;-68
2022/09/15 02:49:22;;;;;;;2.05;0.90;;;;;;;14.78;100.00;92251.41;2134241;27;20023;-66
2022/09/15 02:50:25;;;;;;;2.55;1.00;;;;;;;14.66;100.00;92247.78;2134516;27;20039;-68
2022/09/15 02:51:26;;;;;;;1.20;0.65;;;;;;;14.49;100.00;92247.50;2134387;27;20026;-69
2022/09/15 02:52:27;;;;;;;1.25;0.77;;;;;;;14.59;100.00;92250.84;2138730;27;20018;-66
2022/09/15 02:53:28;;;;;;;2.65;0.80;;;;;;;14.46;100.00;92244.97;2134310;27;20092;-68
2022/09/15 02:54:29;;;;;;;2.10;0.90;;;;;;;14.43;100.00;92249.31;2134454;27;20050;-66
2022/09/15 02:55:30;;;;;;;1.90;1.10;;;;;;;14.32;100.00;92257.19;2134501;27;20063;-66
2022/09/15 02:56:31;;;;;;;1.85;0.90;;;;;;;14.21;100.00;92249.63;2134771;27;20026;-66
2022/09/15 02:57:31;;;;;;;2.60;0.90;;;;;;;14.17;100.00;92243.69;2134068;27;20133;-67
2022/09/15 02:58:33;;;;;;;1.10;0.75;;;;;;;14.20;100.00;92250.09;2133807;27;20070;-68
2022/09/15 03:00:55;;;;;;;2.17;0.70;;;;;;;14.34;100.00;92242.06;2134541;27;20023;-66
2022/09/15 03:01:57;;;;;;;3.72;0.80;;;;;;;14.40;100.00;92238.72;2138206;27;20030;-68
2022/09/15 03:02:58;;;;;;;3.35;0.93;;;;;;;14.30;100.00;92248.81;2134581;27;20037;-67
2022/09/15 03:04:03;;;;;;;4.97;0.90;;;;;;;14.27;100.00;92250.50;2133297;27;20022;-65
2022/09/15 03:05:06;;;;;;;1.52;0.90;;;;;;;14.18;100.00;92252.47;2134193;27;20022;-66
2022/09/15 03:06:17;;;;;;;2.50;0.88;;;;;;;14.20;100.00;92244.72;2134365;27;20026;-66
2022/09/15 03:07:19;;;;;;;1.85;0.70;;;;;;;14.16;100.00;92244.16;2134176;27;20025;-67
2022/09/15 03:08:20;;;;;;;1.65;0.75;;;;;;;14.23;100.00;92246.50;2134167;27;20380;-65
2022/09/15 03:09:20;;;;;;;3.05;0.85;;;;;;;14.18;100.00;92234.44;2134270;27;20026;-66
2022/09/15 03:10:24;;;;;;;1.25;0.70;;;;;;;14.22;100.00;92239.63;2135575;27;20519;-66
2022/09/15 03:11:27;;;;;;;2.03;0.88;;;;;;;14.14;100.00;92241.19;2136160;27;20030;-67
2022/09/15 03:12:28;;;;;;;1.48;1.00;;;;;;;14.17;100.00;92240.25;2136028;27;20113;-67
2022/09/15 03:13:30;;;;;;;1.90;1.05;;;;;;;14.18;100.00;92233.66;2135912;27;20027;-67
2022/09/15 03:14:31;;;;;;;2.20;1.00;;;;;;;14.14;100.00;92235.81;2135491;27;20022;-66
2022/09/15 03:15:32;;;;;;;3.13;0.73;;;;;;;14.07;100.00;92237.63;2135353;27;20053;-69
2022/09/15 03:16:34;;;;;;;2.63;0.85;;;;;;;14.00;100.00;92242.59;2135808;27;20030;-67
2022/09/15 03:17:36;;;;;;;1.88;0.77;;;;;;;14.08;100.00;92239.13;2135937;27;20105;-67
2022/09/15 03:18:38;;;;;;;5.93;1.05;;;;;;;14.20;100.00;92234.72;2135913;27;20029;-68
2022/09/15 03:19:39;;;;;;;0.75;0.75;;;;;;;14.14;100.00;92239.25;2135526;27;20026;-67
2022/09/15 03:20:40;;;;;;;2.50;0.93;;;;;;;14.07;100.00;92231.53;2135256;27;20500;-67
2022/09/15 03:21:41;;;;;;;1.38;0.75;;;;;;;14.13;100.00;92239.69;2136052;27;20014;-67
2022/09/15 03:22:42;;;;;;;1.20;0.70;;;;;;;14.28;100.00;92243.91;2135872;27;20363;-67
2022/09/15 03:23:44;;;;;;;2.13;0.90;;;;;;;14.25;100.00;92252.13;2135898;27;20123;-67
2022/09/15 03:24:45;;;;;;;1.38;0.90;;;;;;;14.32;100.00;92246.41;2135525;27;20041;-68
2022/09/15 03:25:46;;;;;;;1.30;0.82;;;;;;;14.34;100.00;92249.38;2137134;27;20086;-67
2022/09/15 03:26:47;;;;;;;2.17;0.95;;;;;;;14.26;100.00;92253.63;2126558;27;20467;-67
2022/09/15 03:27:48;;;;;;;2.65;0.80;;;;;;;14.47;100.00;92249.88;2126608;27;20026;-67
2022/09/15 03:28:49;;;;;;;5.00;0.95;;;;;;;14.35;100.00;92248.16;2135614;27;20368;-67
2022/09/15 03:29:49;;;;;;;3.58;0.93;;;;;;;14.50;100.00;92256.31;2135415;27;20030;-67
2022/09/15 03:30:51;;;;;;;1.05;0.80;;;;;;;14.45;100.00;92254.97;2135103;27;20037;-66
2022/09/15 03:31:52;;;;;;;3.42;1.10;;;;;;;14.25;100.00;92252.88;2135743;27;20459;-67
2022/09/15 03:32:53;;;;;;;3.00;0.82;;;;;;;14.45;100.00;92249.59;2135609;27;20467;-66
2022/09/15 03:33:55;;;;;;;1.13;0.82;;;;;;;14.31;100.00;92255.66;2135856;27;20141;-66
2022/09/15 03:34:56;;;;;;;1.30;0.85;;;;;;;14.31;100.00;92255.66;2135248;27;20492;-66
2022/09/15 03:35:57;;;;;;;1.85;0.95;;;;;;;14.26;100.00;92256.31;2135001;27;20066;-66
2022/09/15 03:37:00;;;;;;;3.03;0.90;;;;;;;14.23;100.00;92259.94;2135683;27;20050;-66
2022/09/15 03:38:01;;;;;;;1.23;1.00;;;;;;;14.23;100.00;92252.59;2135847;27;20027;-66
2022/09/15 03:39:02;;;;;;;1.00;0.90;;;;;;;14.25;100.00;92254.81;2136035;27;20030;-69
2022/09/15 03:40:04;;;;;;;2.78;0.80;;;;;;;14.32;100.00;92263.28;2135193;27;20026;-66
2022/09/15 03:41:08;;;;;;;3.08;1.08;;;;;;;14.28;100.00;92251.97;2135715;27;20018;-67
2022/09/15 03:42:09;;;;;;;3.13;0.80;;;;;;;14.15;100.00;92248.03;2135855;27;20023;-66
2022/09/15 03:43:11;;;;;;;1.77;0.98;;;;;;;14.11;100.00;92248.22;2135547;27;20101;-67
2022/09/15 03:44:12;;;;;;;2.03;1.20;;;;;;;14.29;100.00;92252.72;2135352;27;20346;-66
2022/09/15 03:45:13;;;;;;;1.55;0.77;;;;;;;14.15;100.00;92258.78;2135343;27;20099;-67
2022/09/15 03:46:14;;;;;;;0.98;0.82;;;;;;;14.09;100.00;92253.28;2126130;27;20031;-66
2022/09/15 03:47:15;;;;;;;1.52;1.10;;;;;;;14.04;100.00;92254.66;2125985;27;20031;-67
2022/09/15 03:48:16;;;;;;;2.15;1.10;;;;;;;14.10;100.00;92268.97;2136369;27;20057;-68
2022/09/15 03:49:18;;;;;;;2.78;1.10;;;;;;;14.20;100.00;92260.84;2135388;27;20090;-68
2022/09/15 03:50:18;;;;;;;4.63;1.20;;;;;;;14.05;100.00;92250.81;2126219;27;20114;-67
2022/09/15 03:51:20;;;;;;;1.50;0.90;;;;;;;14.04;100.00;92253.94;2126184;27;20034;-66
2022/09/15 03:52:21;;;;;;;3.20;1.00;;;;;;;14.07;100.00;92263.78;2134966;27;20058;-67
2022/09/15 03:53:22;;;;;;;2.00;0.90;;;;;;;14.06;100.00;92268.41;2135688;27;20019;-67
2022/09/15 03:54:23;;;;;;;1.67;0.68;;;;;;;14.08;100.00;92265.97;2135461;27;20033;-67
2022/09/15 03:55:24;;;;;;;1.80;0.90;;;;;;;14.06;100.00;92264.97;2135549;27;20065;-67
2022/09/15 03:56:30;;;;;;;4.30;1.00;;;;;;;14.24;100.00;92261.41;2135621;27;20401;-68
2022/09/15 03:57:31;;;;;;;3.00;0.88;;;;;;;14.16;100.00;92257.59;2125855;27;22416;-68
2022/09/15 03:58:32;;;;;;;0.85;0.85;;;;;;;14.13;100.00;92259.25;2126297;27;20063;-67
2022/09/15 03:59:33;;;;;;;1.63;0.95;;;;;;;14.27;100.00;92250.50;2126392;27;20019;-67
2022/09/15 04:00:34;;;;;;;1.40;0.90;;;;;;;14.45;100.00;92251.53;2135439;27;20049;-67
2022/09/15 04:01:35;;;;;;;2.15;0.93;;;;;;;14.41;100.00;92248.28;2126049;27;20080;-67
2022/09/15 04:02:36;;;;;;;1.63;0.80;;;;;;;14.44;100.00;92248.09;2126179;27;20384;-67
2022/09/15 04:03:37;;;;;;;2.22;0.80;;;;;;;14.77;100.00;92247.25;2135403;27;20018;-65
2022/09/15 04:04:38;;;;;;;2.83;0.95;;;;;;;14.73;100.00;92246.69;2135228;27;20716;-66
2022/09/15 04:05:39;;;;;;;3.95;0.90;;;;;;;14.68;100.00;92239.25;2135474;27;20030;-67
2022/09/15 04:06:40;;;;;;;1.75;0.73;;;;;;;14.66;100.00;92247.03;2135182;27;20041;-68
2022/09/15 04:07:41;;;;;;;1.83;0.93;;;;;;;14.56;100.00;92239.06;2134736;27;20057;-67
2022/09/15 04:08:42;;;;;;;2.00;0.75;;;;;;;14.42;100.00;92239.75;2136869;27;20030;-67
2022/09/15 04:09:43;;;;;;;1.08;0.70;;;;;;;14.51;100.00;92239.69;2135375;27;20416;-67
2022/09/15 04:10:44;;;;;;;1.15;0.80;;;;;;;14.57;100.00;92240.56;2135555;27;20111;-66
2022/09/15 04:11:45;;;;;;;1.58;0.68;;;;;;;14.65;100.00;92238.22;2139585;27;20026;-67
2022/09/15 04:12:47;;;;;;;2.92;1.00;;;;;;;14.54;100.00;92241.47;2135289;27;20109;-67
2022/09/15 04:13:48;;;;;;;2.28;0.98;;;;;;;14.44;100.00;92242.72;2134773;27;20054;-67
2022/09/15 04:14:49;;;;;;;2.22;0.98;;;;;;;14.41;100.00;92245.59;2135208;27;20034;-67
2022/09/15 04:16:02;;;;;;;1.27;0.70;;;;;;;14.44;100.00;92241.97;2135024;27;20045;-68
2022/09/15 04:17:03;;;;;;;1.58;0.93;;;;;;;14.29;100.00;92247.34;2135262;27;20025;-67
2022/09/15 04:18:04;;;;;;;1.15;0.90;;;;;;;14.40;100.00;92252.94;2134548;27;20022;-69
2022/09/15 04:19:05;;;;;;;1.75;1.00;;;;;;;14.26;100.00;92259.00;2126098;27;20512;-67
2022/09/15 04:20:06;;;;;;;1.50;1.00;;;;;;;14.35;100.00;92240.09;2122069;27;20741;-68
2022/09/15 04:21:11;;;;;;;1.30;0.90;;;;;;;14.27;100.00;92237.06;2134971;27;20037;-68
2022/09/15 04:22:13;;;;;;;2.20;0.90;;;;;;;14.22;100.00;92240.34;2134915;27;20047;-67
2022/09/15 04:23:13;;;;;;;1.52;0.80;;;;;;;14.22;100.00;92234.22;2135066;27;20026;-68
2022/09/15 04:24:14;;;;;;;1.70;1.20;;;;;;;14.23;100.00;92241.13;2135441;27;20452;-68
2022/09/15 04:25:15;;;;;;;2.45;0.90;;;;;;;14.21;100.00;92236.19;2135491;27;20052;-68
2022/09/15 04:26:32;;;;;;;2.67;1.38;;;;;;;14.27;100.00;92244.38;2135429;27;20097;-67
2022/09/15 04:27:35;;;;;;;0.80;0.70;;;;;;;14.27;100.00;92239.00;2135076;27;20038;-67
2022/09/15 04:28:36;;;;;;;2.00;0.75;;;;;;;14.27;100.00;92234.38;2134850;27;20069;-68
2022/09/15 04:29:37;;;;;;;1.45;0.90;;;;;;;14.17;100.00;92240.25;2135426;27;20034;-68
2022/09/15 04:30:38;;;;;;;1.35;0.77;;;;;;;14.07;100.00;92226.88;2135362;27;20635;-67
2022/09/15 04:31:39;;;;;;;2.83;0.88;;;;;;;14.00;100.00;92227.22;2135609;27;20018;-68
2022/09/15 04:32:40;;;;;;;1.58;0.85;;;;;;;14.04;100.00;92233.16;2135563;27;20631;-67
2022/09/15 04:33:42;;;;;;;0.77;0.70;;;;;;;13.97;100.00;92238.91;2138567;27;20021;-67
2022/09/15 04:34:43;;;;;;;3.00;1.20;;;;;;;13.98;100.00;92232.31;2135271;27;20105;-67
2022/09/15 04:35:45;;;;;;;1.42;0.98;;;;;;;14.06;100.00;92233.47;2135205;27;20030;-67
2022/09/15 04:36:46;;;;;;;1.30;0.70;;;;;;;14.00;100.00;92229.16;2135389;27;20037;-67
2022/09/15 04:37:47;;;;;;;1.10;1.00;;;;;;;13.94;100.00;92231.75;2134993;27;20078;-66
2022/09/15 04:38:49;;;;;;;1.20;1.00;;;;;;;14.03;100.00;92236.31;2135151;27;20034;-67
2022/09/15 04:39:50;;;;;;;4.13;0.90;;;;;;;13.97;100.00;92238.91;2132815;27;20038;-69
2022/09/15 04:40:51;;;;;;;1.40;0.85;;;;;;;13.91;100.00;92229.25;2135216;27;20075;-69
2022/09/15 04:41:53;;;;;;;1.75;1.02;;;;;;;13.87;100.00;92242.84;2135261;27;20118;-69
2022/09/15 04:42:54;;;;;;;2.50;0.95;;;;;;;13.81;100.00;92234.66;2135099;27;20031;-67
2022/09/15 04:43:55;;;;;;;1.75;0.93;;;;;;;14.00;100.00;92243.34;2134991;27;20091;-67
2022/09/15 04:44:56;;;;;;;2.53;1.60;;;;;;;13.97;100.00;92246.22;2133785;27;20106;-68
2022/09/15 04:45:57;;;;;;;2.15;1.00;;;;;;;13.82;100.00;92246.91;2135424;27;20539;-69
2022/09/15 04:46:58;;;;;;;1.40;1.10;;;;;;;13.79;100.00;92244.41;2135122;27;20038;-67
2022/09/15 04:47:59;;;;;;;1.55;0.98;;;;;;;13.72;100.00;92250.09;2134927;27;20040;-66
2022/09/15 04:49:00;;;;;;;2.25;0.90;;;;;;;13.73;100.00;92254.28;2139271;27;20027;-66
2022/09/15 04:50:01;;;;;;;0.88;0.80;;;;;;;13.91;100.00;92246.09;2134971;27;20546;-67
2022/09/15 04:51:05;;;;;;;1.23;1.02;;;;;;;13.90;100.00;92247.31;2131810;27;20353;-66
2022/09/15 04:52:06;;;;;;;1.52;0.85;;;;;;;13.84;100.00;92257.94;2135383;27;20030;-66
2022/09/15 04:53:08;;;;;;;4.18;0.88;;;;;;;13.79;100.00;92255.16;2134937;27;20023;-68
2022/09/15 04:54:09;;;;;;;1.98;0.90;;;;;;;13.80;100.00;92253.94;2134699;27;20034;-67
2022/09/15 04:55:10;;;;;;;2.40;1.02;;;;;;;13.85;100.00;92253.31;2134697;27;20413;-68
2022/09/15 04:56:14;;;;;;;3.53;0.88;;;;;;;13.89;100.00;92256.56;2130755;27;20030;-68
2022/09/15 04:57:15;;;;;;;3.20;0.90;;;;;;;13.90;100.00;92249.25;2130012;27;20057;-67
2022/09/15 04:58:16;;;;;;;1.85;1.10;;;;;;;13.90;100.00;92255.38;2130770;27;20639;-67
2022/09/15 04:59:18;;;;;;;6.30;1.10;;;;;;;13.84;100.00;92246.47;2130344;27;20022;-69
2022/09/15 05:00:19;;;;;;;4.57;1.70;;;;;;;13.80;100.00;92249.31;2129684;27;20035;-68
2022/09/15 05:01:29;;;;;;;1.20;1.10;;;;;;;13.80;100.00;92256.63;2129999;27;20018;-67
2022/09/15 05:02:30;;;;;;;1.23;1.10;;;;;;;13.80;100.00;92248.56;2128686;27;20122;-67